createdAt,value
2018-07-04T00:00:07.872Z,11.20
2018-07-04T00:02:54.969Z,11.40
2018-07-04T00:05:42.120Z,12.03
2018-07-04T00:08:29.301Z,11.07
2018-07-04T00:11:16.515Z,11.40
2018-07-04T00:14:04.109Z,11.40
2018-07-04T00:16:51.311Z,12.17
2018-07-04T00:19:32.395Z,11.37
2018-07-04T00:22:20.052Z,11.30
2018-07-04T00:25:07.409Z,11.63
2018-07-04T00:27:54.474Z,11.00
2018-07-04T00:30:41.660Z,11.30
2018-07-04T00:33:28.632Z,11.00
2018-07-04T00:36:16.043Z,11.00
2018-07-04T00:39:03.415Z,11.40
2018-07-04T00:41:50.769Z,11.70
2018-07-04T00:44:38.015Z,12.23
2018-07-04T00:47:25.137Z,11.80
2018-07-04T00:50:12.687Z,12.23
2018-07-04T00:52:59.844Z,11.70
2018-07-04T00:55:47.110Z,12.17
2018-07-04T00:58:34.432Z,12.60
2018-07-04T01:01:15.678Z,13.37
2018-07-04T01:04:03.042Z,14.70
2018-07-04T01:06:50.247Z,13.00
2018-07-04T01:09:37.631Z,12.87
2018-07-04T01:12:24.975Z,13.20
2018-07-04T01:15:12.246Z,12.77
2018-07-04T01:17:59.530Z,12.60
2018-07-04T01:20:51.965Z,12.93
2018-07-04T01:23:39.207Z,12.90
2018-07-04T01:26:26.257Z,12.70
2018-07-04T01:29:13.297Z,13.13
2018-07-04T01:32:00.597Z,12.83
2018-07-04T01:34:47.786Z,13.50
2018-07-04T01:37:35.011Z,13.70
2018-07-04T01:40:22.109Z,13.70
2018-07-04T01:43:09.386Z,13.70
2018-07-04T01:45:56.484Z,13.90
2018-07-04T01:48:43.937Z,13.20
2018-07-04T01:54:31.738Z,13.97
2018-07-04T01:57:18.921Z,13.63
2018-07-04T02:00:06.387Z,13.00
2018-07-04T02:02:53.437Z,14.00
2018-07-04T02:05:40.549Z,14.23
2018-07-04T02:08:27.822Z,13.37
2018-07-04T02:11:09.168Z,14.07
2018-07-04T02:13:56.268Z,14.00
2018-07-04T02:16:43.675Z,13.60
2018-07-04T02:19:30.961Z,14.47
2018-07-04T02:22:18.060Z,13.77
2018-07-04T02:25:05.661Z,14.70
2018-07-04T02:27:53.112Z,14.53
2018-07-04T02:30:40.280Z,14.20
2018-07-04T02:33:21.407Z,14.37
2018-07-04T02:36:08.401Z,15.20
2018-07-04T02:38:55.645Z,14.63
2018-07-04T02:41:43.014Z,15.93
2018-07-04T02:44:30.219Z,15.87
2018-07-04T02:47:22.346Z,15.97
2018-07-04T02:50:10.246Z,17.30
2018-07-04T02:52:57.572Z,19.20
2018-07-04T02:55:44.895Z,17.57
2018-07-04T02:58:32.443Z,15.53
2018-07-04T03:01:19.589Z,16.53
2018-07-04T03:04:07.043Z,16.47
2018-07-04T03:06:54.357Z,17.60
2018-07-04T03:09:41.765Z,16.73
2018-07-04T03:12:28.980Z,17.43
2018-07-04T03:15:16.148Z,16.20
2018-07-04T03:18:03.135Z,17.63
2018-07-04T03:20:50.188Z,17.07
2018-07-04T03:23:38.435Z,17.73
2018-07-04T03:26:20.290Z,17.00
2018-07-04T03:29:07.748Z,17.43
2018-07-04T03:31:54.835Z,19.37
2018-07-04T03:34:41.738Z,20.27
2018-07-04T03:37:28.987Z,21.03
2018-07-04T03:40:16.519Z,23.73
2018-07-04T03:43:03.602Z,30.77
2018-07-04T03:45:51.029Z,42.97
2018-07-04T03:48:38.454Z,53.10
2018-07-04T03:51:25.634Z,40.63
2018-07-04T03:54:12.907Z,31.67
2018-07-04T03:57:00.277Z,23.10
2018-07-04T03:59:47.508Z,19.50
2018-07-04T04:02:34.711Z,18.03
2018-07-04T04:05:22.337Z,17.20
2018-07-04T04:08:09.673Z,17.87
2018-07-04T04:10:51.027Z,17.53
2018-07-04T04:13:38.119Z,17.43
2018-07-04T04:16:25.910Z,19.03
2018-07-04T04:19:12.995Z,17.10
2018-07-04T04:22:00.128Z,15.63
2018-07-04T04:24:47.256Z,15.27
2018-07-04T04:27:34.686Z,15.67
2018-07-04T04:30:21.660Z,15.27
2018-07-04T04:33:09.568Z,13.63
2018-07-04T04:35:57.000Z,13.30
2018-07-04T04:38:44.372Z,12.77
2018-07-04T04:41:31.651Z,13.47
2018-07-04T04:44:18.972Z,13.27
2018-07-04T04:47:06.291Z,13.13
2018-07-04T04:49:53.649Z,11.90
2018-07-04T04:52:40.858Z,12.63
2018-07-04T04:55:28.273Z,12.90
2018-07-04T04:58:15.668Z,13.20
2018-07-04T05:01:02.861Z,13.37
2018-07-04T05:03:50.001Z,15.87
2018-07-04T05:06:37.382Z,13.93
2018-07-04T05:09:24.615Z,12.43
2018-07-04T05:12:11.713Z,12.70
2018-07-04T05:14:58.879Z,12.50
2018-07-04T05:17:46.177Z,11.70
2018-07-04T05:20:33.557Z,12.30
2018-07-04T05:23:21.002Z,12.20
2018-07-04T05:26:08.247Z,12.23
2018-07-04T05:28:55.528Z,11.47
2018-07-04T05:31:42.953Z,11.47
2018-07-04T05:34:30.592Z,12.30
2018-07-04T05:37:17.738Z,12.43
2018-07-04T05:40:04.858Z,12.97
2018-07-04T05:42:52.429Z,12.90
2018-07-04T05:45:39.832Z,12.50
2018-07-04T05:48:27.034Z,13.57
2018-07-04T05:51:14.245Z,13.50
2018-07-04T05:54:01.735Z,14.77
2018-07-04T05:56:48.766Z,13.80
2018-07-04T05:59:35.931Z,14.23
2018-07-04T06:02:23.153Z,14.63
2018-07-04T06:05:10.629Z,14.90
2018-07-04T06:07:57.840Z,14.70
2018-07-04T06:10:45.062Z,14.70
2018-07-04T06:13:32.615Z,13.13
2018-07-04T06:16:19.985Z,12.07
2018-07-04T06:19:07.060Z,12.47
2018-07-04T06:21:54.387Z,11.03
2018-07-04T06:24:41.376Z,11.40
2018-07-04T06:27:28.775Z,11.30
2018-07-04T06:30:16.649Z,11.07
2018-07-04T06:33:04.045Z,11.13
2018-07-04T06:35:51.412Z,9.43
2018-07-04T06:38:26.301Z,9.53
2018-07-04T06:40:54.762Z,9.63
2018-07-04T06:43:23.593Z,9.23
2018-07-04T06:45:52.182Z,9.30
2018-07-04T06:48:21.064Z,8.63
2018-07-04T06:50:49.499Z,8.73
2018-07-04T06:53:19.547Z,8.97
2018-07-04T06:55:48.138Z,8.53
2018-07-04T06:58:16.910Z,8.40
2018-07-04T07:00:45.616Z,8.47
2018-07-04T07:03:26.691Z,8.33
2018-07-04T07:06:13.766Z,7.30
2018-07-04T07:09:00.894Z,7.90
2018-07-04T07:11:48.348Z,7.67
2018-07-04T07:14:35.596Z,7.97
2018-07-04T07:17:23.096Z,7.87
2018-07-04T07:20:10.461Z,7.60
2018-07-04T07:22:57.850Z,7.67
2018-07-04T07:25:44.999Z,9.23
2018-07-04T07:28:26.383Z,8.03
2018-07-04T07:31:13.473Z,8.13
2018-07-04T07:34:00.595Z,8.03
2018-07-04T07:36:48.709Z,9.10
2018-07-04T07:39:35.803Z,10.27
2018-07-04T07:42:22.882Z,9.47
2018-07-04T07:45:09.883Z,10.07
2018-07-04T07:47:57.127Z,9.17
2018-07-04T07:50:44.416Z,9.90
2018-07-04T07:53:31.683Z,9.77
2018-07-04T07:56:18.721Z,8.70
2018-07-04T07:59:06.125Z,10.13
2018-07-04T08:01:47.308Z,9.93
2018-07-04T08:04:34.520Z,10.30
2018-07-04T08:07:15.781Z,9.53
2018-07-04T08:10:02.881Z,9.73
2018-07-04T08:12:50.022Z,9.10
2018-07-04T08:15:37.201Z,8.50
2018-07-04T08:18:24.242Z,9.47
2018-07-04T08:21:05.381Z,9.00
2018-07-04T08:23:52.259Z,8.30
2018-07-04T08:26:39.433Z,8.23
2018-07-04T08:29:26.655Z,9.03
2018-07-04T08:32:13.686Z,8.50
2018-07-04T08:35:01.131Z,8.73
2018-07-04T08:37:48.440Z,9.67
2018-07-04T08:40:35.664Z,9.13
2018-07-04T08:43:22.789Z,10.13
2018-07-04T08:46:10.277Z,8.50
2018-07-04T08:48:57.508Z,7.50
2018-07-04T08:51:44.791Z,6.67
2018-07-04T08:54:31.837Z,6.13
2018-07-04T08:57:19.026Z,7.33
2018-07-04T09:00:06.262Z,6.20
2018-07-04T09:02:53.557Z,5.80
2018-07-04T09:05:40.879Z,5.67
2018-07-04T09:08:28.103Z,7.00
2018-07-04T09:11:15.259Z,5.80
2018-07-04T09:13:56.570Z,5.27
2018-07-04T09:16:43.607Z,6.73
2018-07-04T09:19:31.033Z,6.57
2018-07-04T09:22:18.522Z,8.10
2018-07-04T09:25:06.140Z,6.77
2018-07-04T09:27:53.684Z,5.77
2018-07-04T09:30:40.908Z,5.70
2018-07-04T09:33:28.076Z,5.13
2018-07-04T09:36:15.430Z,5.30
2018-07-04T09:39:02.555Z,5.30
2018-07-04T09:41:49.878Z,6.70
2018-07-04T09:44:37.137Z,4.43
2018-07-04T09:47:24.813Z,5.40
2018-07-04T09:50:12.020Z,5.60
2018-07-04T09:52:59.330Z,5.80
2018-07-04T09:55:46.669Z,5.63
2018-07-04T09:58:33.953Z,5.63
2018-07-04T10:01:25.943Z,5.47
2018-07-04T10:04:13.745Z,4.73
2018-07-04T10:07:00.965Z,4.63
2018-07-04T10:09:48.395Z,6.60
2018-07-04T10:12:35.640Z,5.27
2018-07-04T10:15:22.820Z,6.33
2018-07-04T10:18:11.376Z,9.57
2018-07-04T10:20:58.700Z,5.30
2018-07-04T10:23:40.090Z,7.70
2018-07-04T10:26:27.400Z,6.10
2018-07-04T10:29:14.988Z,12.80
2018-07-04T10:32:02.967Z,10.77
2018-07-04T10:34:50.257Z,8.30
2018-07-04T10:37:31.297Z,4.90
2018-07-04T10:40:18.253Z,5.67
2018-07-04T10:43:05.333Z,6.77
2018-07-04T10:45:52.694Z,6.40
2018-07-04T10:48:39.955Z,5.13
2018-07-04T10:51:27.657Z,5.27
2018-07-04T10:54:14.968Z,7.80
2018-07-04T10:57:02.125Z,6.53
2018-07-04T10:59:49.438Z,6.40
2018-07-04T11:02:36.796Z,6.17
2018-07-04T11:05:24.075Z,5.63
2018-07-04T11:08:11.374Z,5.60
2018-07-04T11:10:58.509Z,4.87
2018-07-04T11:13:45.948Z,5.40
2018-07-04T11:16:33.085Z,5.10
2018-07-04T11:19:20.656Z,6.50
2018-07-04T11:22:07.910Z,5.17
2018-07-04T11:24:55.203Z,5.70
2018-07-04T11:27:36.550Z,5.07
2018-07-04T11:30:23.910Z,5.33
2018-07-04T11:33:11.292Z,5.37
2018-07-04T11:35:58.784Z,4.97
2018-07-04T11:38:46.089Z,5.60
2018-07-04T11:41:33.163Z,5.73
2018-07-04T11:44:20.476Z,5.10
2018-07-04T11:46:55.461Z,5.70
2018-07-04T11:49:23.990Z,5.67
2018-07-04T11:51:52.600Z,5.20
2018-07-04T11:54:21.145Z,5.53
2018-07-04T11:56:49.903Z,5.40
2018-07-04T11:59:18.529Z,5.57
2018-07-04T12:01:47.175Z,5.23
2018-07-04T12:04:28.198Z,5.37
2018-07-04T12:07:06.076Z,5.50
2018-07-04T12:09:35.373Z,6.60
2018-07-04T12:12:04.209Z,5.33
2018-07-04T12:14:33.044Z,5.70
2018-07-04T12:17:01.744Z,5.77
2018-07-04T12:19:30.657Z,5.20
2018-07-04T12:21:59.482Z,6.87
2018-07-04T12:24:28.386Z,5.80
2018-07-04T12:26:57.127Z,5.30
2018-07-04T12:29:25.517Z,5.63
2018-07-04T12:31:54.199Z,6.00
2018-07-04T12:34:22.807Z,6.50
2018-07-04T12:36:51.387Z,6.23
2018-07-04T12:39:19.896Z,5.70
2018-07-04T12:41:48.412Z,6.10
2018-07-04T12:44:16.969Z,7.20
2018-07-04T12:46:45.476Z,6.50
2018-07-04T12:49:13.982Z,6.23
2018-07-04T12:51:42.441Z,6.20
2018-07-04T12:54:16.479Z,6.67
2018-07-04T12:56:57.291Z,6.90
2018-07-04T12:59:44.423Z,6.60
2018-07-04T13:02:31.613Z,6.00
2018-07-04T13:05:19.020Z,6.53
2018-07-04T13:08:06.025Z,6.63
2018-07-04T13:10:53.218Z,6.53
2018-07-04T13:13:40.867Z,6.90
2018-07-04T13:16:28.166Z,6.50
2018-07-04T13:19:15.603Z,6.73
2018-07-04T13:22:02.855Z,6.97
2018-07-04T13:24:50.167Z,6.77
2018-07-04T13:27:37.692Z,6.83
2018-07-04T13:30:25.020Z,6.20
2018-07-04T13:33:06.331Z,6.77
2018-07-04T13:35:53.487Z,7.30
2018-07-04T13:38:40.746Z,7.13
2018-07-04T13:41:28.054Z,7.70
2018-07-04T13:44:15.130Z,6.43
2018-07-04T13:47:02.695Z,6.80
2018-07-04T13:49:50.101Z,7.13
2018-07-04T13:52:37.233Z,6.30
2018-07-04T13:55:25.037Z,7.10
2018-07-04T13:58:12.442Z,7.43
2018-07-04T14:00:59.397Z,6.73
2018-07-04T14:03:46.834Z,6.80
2018-07-04T14:06:33.963Z,6.63
2018-07-04T14:09:21.254Z,6.67
2018-07-04T14:12:08.559Z,6.90
2018-07-04T14:14:49.689Z,6.63
2018-07-04T14:17:37.281Z,7.23
2018-07-04T14:20:25.260Z,6.83
2018-07-04T14:23:12.568Z,7.03
2018-07-04T14:25:59.652Z,8.63
2018-07-04T14:28:46.556Z,7.23
2018-07-04T14:31:33.657Z,7.37
2018-07-04T14:34:20.954Z,6.83
2018-07-04T14:37:08.284Z,6.90
2018-07-04T14:39:55.403Z,7.47
2018-07-04T14:42:43.748Z,6.67
2018-07-04T14:45:31.265Z,7.83
2018-07-04T14:48:18.483Z,7.60
2018-07-04T14:51:05.617Z,7.83
2018-07-04T14:53:53.395Z,7.23
2018-07-04T14:56:40.474Z,7.73
2018-07-04T14:59:27.638Z,7.57
2018-07-04T15:02:15.069Z,7.50
2018-07-04T15:05:02.373Z,8.00
2018-07-04T15:07:49.369Z,7.70
2018-07-04T15:10:36.761Z,8.83
2018-07-04T15:13:23.964Z,7.80
2018-07-04T15:16:11.253Z,8.37
2018-07-04T15:18:58.914Z,8.60
2018-07-04T15:21:46.730Z,8.70
2018-07-04T15:24:33.770Z,8.33
2018-07-04T15:27:20.878Z,8.43
2018-07-04T15:30:08.477Z,8.90
2018-07-04T15:32:56.098Z,8.60
2018-07-04T15:35:43.640Z,9.37
2018-07-04T15:38:30.849Z,8.13
2018-07-04T15:41:18.190Z,8.87
2018-07-04T15:44:05.764Z,8.37
2018-07-04T15:46:46.905Z,8.93
2018-07-04T15:49:33.920Z,8.80
2018-07-04T15:52:21.145Z,8.50
2018-07-04T15:55:08.452Z,8.23
2018-07-04T15:57:55.734Z,8.53
2018-07-04T16:00:43.049Z,8.80
2018-07-04T16:03:30.464Z,7.77
2018-07-04T16:06:17.498Z,9.43
2018-07-04T16:09:05.849Z,9.07
2018-07-04T16:11:53.491Z,8.90
2018-07-04T16:14:40.794Z,10.70
2018-07-04T16:17:28.049Z,9.23
2018-07-04T16:20:15.203Z,9.73
2018-07-04T16:23:02.473Z,10.10
2018-07-04T16:25:49.892Z,10.13
2018-07-04T16:28:37.379Z,10.50
2018-07-04T16:31:24.927Z,11.00
2018-07-04T16:34:12.350Z,29.00
2018-07-04T16:36:59.729Z,13.10
2018-07-04T16:39:46.818Z,9.40
2018-07-04T16:42:27.976Z,14.43
2018-07-04T16:45:15.125Z,23.97
2018-07-04T16:48:02.706Z,16.80
2018-07-04T16:50:49.861Z,21.00
2018-07-04T16:53:37.270Z,23.13
2018-07-04T16:56:24.450Z,25.53
2018-07-04T16:59:11.724Z,19.97
2018-07-04T17:01:59.056Z,20.40
2018-07-04T17:04:46.357Z,19.50
2018-07-04T17:07:33.816Z,13.27
2018-07-04T17:10:21.424Z,17.50
2018-07-04T17:13:08.639Z,18.23
2018-07-04T17:15:55.828Z,21.30
2018-07-04T17:18:42.951Z,16.33
2018-07-04T17:21:24.090Z,14.30
2018-07-04T17:24:11.191Z,14.10
2018-07-04T17:26:58.380Z,15.40
2018-07-04T17:29:46.052Z,19.83
2018-07-04T17:32:33.475Z,20.67
2018-07-04T17:35:20.746Z,18.93
2018-07-04T17:38:08.161Z,14.20
2018-07-04T17:40:55.403Z,14.03
2018-07-04T17:43:42.668Z,18.13
2018-07-04T17:46:29.976Z,15.67
2018-07-04T17:49:17.293Z,27.90
2018-07-04T17:52:04.678Z,35.77
2018-07-04T17:54:51.974Z,37.03
2018-07-04T17:57:39.568Z,34.63
2018-07-04T18:00:26.739Z,32.53
2018-07-04T18:03:14.053Z,15.13
2018-07-04T18:06:01.285Z,12.33
2018-07-04T18:08:42.770Z,11.00
2018-07-04T18:11:29.938Z,10.30
2018-07-04T18:14:17.436Z,10.77
2018-07-04T18:17:04.695Z,10.07
2018-07-04T18:19:52.056Z,10.23
2018-07-04T18:22:39.300Z,12.30
2018-07-04T18:25:26.549Z,10.60
2018-07-04T18:28:13.934Z,11.60
2018-07-04T18:31:01.349Z,10.70
2018-07-04T18:33:48.603Z,11.40
2018-07-04T18:36:35.932Z,10.67
2018-07-04T18:39:23.077Z,11.17
2018-07-04T18:42:10.323Z,11.40
2018-07-04T18:44:57.632Z,10.90
2018-07-04T18:47:44.809Z,10.93
2018-07-04T18:50:32.026Z,10.27
2018-07-04T18:53:13.012Z,9.87
2018-07-04T18:56:00.476Z,9.33
2018-07-04T18:58:47.757Z,9.83
2018-07-04T19:01:34.959Z,10.93
2018-07-04T19:04:22.042Z,23.27
2018-07-04T19:07:09.133Z,56.13
2018-07-04T19:09:56.448Z,54.03
2018-07-04T19:12:43.759Z,35.63
2018-07-04T19:15:25.114Z,34.90
2018-07-04T19:18:12.182Z,38.93
2018-07-04T19:20:59.359Z,47.37
2018-07-04T19:23:47.192Z,69.57
2018-07-04T19:26:34.369Z,72.60
2018-07-04T19:29:21.676Z,59.97
2018-07-04T19:32:08.704Z,66.60
2018-07-04T19:34:56.445Z,74.60
2018-07-04T19:37:44.178Z,82.93
2018-07-04T19:40:31.565Z,44.90
2018-07-04T19:43:18.606Z,11.20
2018-07-04T19:46:06.150Z,9.50
2018-07-04T19:48:53.384Z,13.70
2018-07-04T19:51:40.462Z,39.23
2018-07-04T19:54:27.620Z,64.00
2018-07-04T19:57:14.968Z,70.83
2018-07-04T20:00:02.666Z,57.10
2018-07-04T20:02:50.273Z,19.03
2018-07-04T20:05:37.368Z,10.20
2018-07-04T20:08:24.709Z,8.73
2018-07-04T20:11:11.865Z,8.47
2018-07-04T20:13:58.986Z,18.33
2018-07-04T20:16:46.317Z,57.00
2018-07-04T20:19:33.854Z,56.37
2018-07-04T20:22:21.050Z,90.03
2018-07-04T20:25:08.841Z,75.47
2018-07-04T20:27:56.042Z,98.13
2018-07-04T20:30:43.025Z,53.37
2018-07-04T20:33:30.298Z,28.93
2018-07-04T20:36:17.747Z,24.23
2018-07-04T20:39:05.605Z,15.97
2018-07-04T20:41:52.757Z,10.30
2018-07-04T20:44:39.833Z,9.80
2018-07-04T20:47:27.246Z,11.30
2018-07-04T20:50:14.369Z,12.90
2018-07-04T20:53:01.575Z,9.80
2018-07-04T20:55:49.052Z,8.93
2018-07-04T20:58:30.300Z,8.87
2018-07-04T21:01:17.507Z,8.57
2018-07-04T21:04:04.857Z,8.60
2018-07-04T21:06:52.010Z,8.60
2018-07-04T21:09:39.581Z,8.80
2018-07-04T21:12:20.628Z,8.30
2018-07-04T21:15:08.217Z,8.33
2018-07-04T21:17:55.529Z,8.23
2018-07-04T21:20:43.348Z,7.80
2018-07-04T21:23:30.560Z,9.20
2018-07-04T21:26:17.688Z,8.57
2018-07-04T21:29:05.004Z,8.27
2018-07-04T21:31:52.200Z,8.07
2018-07-04T21:34:39.438Z,7.83
2018-07-04T21:37:27.028Z,8.10
2018-07-04T21:40:14.392Z,9.20
2018-07-04T21:42:55.941Z,9.43
2018-07-04T21:45:43.106Z,11.73
2018-07-04T21:48:31.006Z,15.47
2018-07-04T21:51:18.303Z,13.57
2018-07-04T21:54:05.308Z,10.60
2018-07-04T21:56:52.458Z,10.13
2018-07-04T21:59:39.834Z,10.87
2018-07-04T22:02:21.429Z,11.70
2018-07-04T22:05:08.579Z,11.33
2018-07-04T22:07:56.033Z,11.27
2018-07-04T22:10:43.184Z,11.20
2018-07-04T22:13:30.414Z,10.47
2018-07-04T22:16:11.858Z,11.03
2018-07-04T22:18:58.839Z,11.77
2018-07-04T22:21:46.332Z,12.43
2018-07-04T22:24:33.408Z,12.63
2018-07-04T22:27:20.391Z,12.70
2018-07-04T22:30:07.784Z,13.33
2018-07-04T22:32:54.719Z,13.23
2018-07-04T22:35:42.113Z,13.87
2018-07-04T22:38:29.359Z,14.60
2018-07-04T22:41:17.003Z,20.03
2018-07-04T22:44:04.212Z,18.90
2018-07-04T22:46:51.619Z,14.60
2018-07-04T22:49:38.877Z,12.23
2018-07-04T22:52:26.215Z,12.20
2018-07-04T22:55:13.612Z,10.37
2018-07-04T22:57:54.813Z,10.27
2018-07-04T23:00:41.977Z,10.27
2018-07-04T23:03:29.309Z,10.67
2018-07-04T23:06:16.906Z,10.03
2018-07-04T23:09:05.598Z,9.40
2018-07-04T23:11:53.022Z,9.30
2018-07-04T23:14:40.323Z,8.40
2018-07-04T23:17:27.514Z,8.03
2018-07-04T23:20:14.783Z,8.87
2018-07-04T23:23:02.488Z,9.50
2018-07-04T23:25:49.527Z,9.07
2018-07-04T23:28:36.679Z,8.83
2018-07-04T23:31:23.890Z,9.57
2018-07-04T23:34:11.257Z,9.40
2018-07-04T23:36:58.444Z,9.07
2018-07-04T23:39:46.333Z,9.20
2018-07-04T23:42:34.286Z,9.43
2018-07-04T23:45:21.448Z,9.27
2018-07-04T23:48:08.782Z,9.10
2018-07-04T23:50:56.117Z,9.83
2018-07-04T23:53:43.470Z,9.17
2018-07-04T23:56:30.819Z,9.10
2018-07-04T23:59:12.261Z,9.80
